sensor_id;sensor_type;location;lat;lon;timestamp;P1;durP1;ratioP1;P2;durP2;ratioP2
2658;SDS011;1339;53.304;10.406;2023-03-08T00:01:14;2.90;;;2.60;;
2658;SDS011;1339;53.304;10.406;2023-03-08T00:03:43;4.50;;;3.35;;
2658;SDS011;1339;53.304;10.406;2023-03-08T00:06:10;8.68;;;3.20;;
2658;SDS011;1339;53.304;10.406;2023-03-08T00:08:37;3.70;;;2.72;;
2658;SDS011;1339;53.304;10.406;2023-03-08T00:11:05;4.15;;;3.17;;
2658;SDS011;1339;53.304;10.406;2023-03-08T00:13:32;4.20;;;2.92;;
2658;SDS011;1339;53.304;10.406;2023-03-08T00:15:59;8.30;;;4.38;;
2658;SDS011;1339;53.304;10.406;2023-03-08T00:18:26;3.35;;;2.67;;
2658;SDS011;1339;53.304;10.406;2023-03-08T00:20:58;4.53;;;3.08;;
2658;SDS011;1339;53.304;10.406;2023-03-08T00:23:25;4.95;;;3.42;;
2658;SDS011;1339;53.304;10.406;2023-03-08T00:25:52;3.22;;;2.90;;
2658;SDS011;1339;53.304;10.406;2023-03-08T00:28:19;5.43;;;2.90;;
2658;SDS011;1339;53.304;10.406;2023-03-08T00:30:53;4.32;;;3.83;;
2658;SDS011;1339;53.304;10.406;2023-03-08T00:33:20;6.32;;;3.60;;
2658;SDS011;1339;53.304;10.406;2023-03-08T00:35:52;6.88;;;4.20;;
2658;SDS011;1339;53.304;10.406;2023-03-08T00:38:21;3.15;;;2.88;;
2658;SDS011;1339;53.304;10.406;2023-03-08T00:40:48;3.92;;;3.55;;
2658;SDS011;1339;53.304;10.406;2023-03-08T00:43:15;6.00;;;3.00;;
2658;SDS011;1339;53.304;10.406;2023-03-08T00:45:41;5.10;;;4.63;;
2658;SDS011;1339;53.304;10.406;2023-03-08T00:48:08;4.53;;;3.50;;
2658;SDS011;1339;53.304;10.406;2023-03-08T00:50:35;4.28;;;3.05;;
2658;SDS011;1339;53.304;10.406;2023-03-08T00:53:02;4.50;;;3.72;;
2658;SDS011;1339;53.304;10.406;2023-03-08T00:55:30;5.22;;;3.60;;
2658;SDS011;1339;53.304;10.406;2023-03-08T00:57:57;11.20;;;4.50;;
2658;SDS011;1339;53.304;10.406;2023-03-08T01:00:24;5.50;;;3.58;;
2658;SDS011;1339;53.304;10.406;2023-03-08T01:02:51;4.90;;;4.50;;
2658;SDS011;1339;53.304;10.406;2023-03-08T01:05:18;4.45;;;3.65;;
2658;SDS011;1339;53.304;10.406;2023-03-08T01:07:45;5.80;;;4.63;;
2658;SDS011;1339;53.304;10.406;2023-03-08T01:10:12;9.80;;;4.60;;
2658;SDS011;1339;53.304;10.406;2023-03-08T01:12:41;5.68;;;5.18;;
2658;SDS011;1339;53.304;10.406;2023-03-08T01:15:08;6.88;;;4.38;;
2658;SDS011;1339;53.304;10.406;2023-03-08T01:17:35;8.18;;;4.90;;
2658;SDS011;1339;53.304;10.406;2023-03-08T01:20:02;6.68;;;5.28;;
2658;SDS011;1339;53.304;10.406;2023-03-08T01:22:29;5.43;;;4.93;;
2658;SDS011;1339;53.304;10.406;2023-03-08T01:24:57;6.50;;;5.85;;
2658;SDS011;1339;53.304;10.406;2023-03-08T01:27:24;6.07;;;5.40;;
2658;SDS011;1339;53.304;10.406;2023-03-08T01:29:52;8.32;;;5.75;;
2658;SDS011;1339;53.304;10.406;2023-03-08T01:32:19;7.60;;;5.95;;
2658;SDS011;1339;53.304;10.406;2023-03-08T01:34:46;11.45;;;6.00;;
2658;SDS011;1339;53.304;10.406;2023-03-08T01:37:13;6.72;;;6.13;;
2658;SDS011;1339;53.304;10.406;2023-03-08T01:39:39;7.05;;;6.30;;
2658;SDS011;1339;53.304;10.406;2023-03-08T01:42:07;9.40;;;6.20;;
2658;SDS011;1339;53.304;10.406;2023-03-08T01:44:52;8.57;;;6.22;;
2658;SDS011;1339;53.304;10.406;2023-03-08T01:47:19;12.52;;;7.20;;
2658;SDS011;1339;53.304;10.406;2023-03-08T01:49:46;8.32;;;7.50;;
2658;SDS011;1339;53.304;10.406;2023-03-08T01:52:14;7.95;;;7.03;;
2658;SDS011;1339;53.304;10.406;2023-03-08T01:54:43;7.40;;;6.63;;
2658;SDS011;1339;53.304;10.406;2023-03-08T01:57:13;8.90;;;7.95;;
2658;SDS011;1339;53.304;10.406;2023-03-08T01:59:41;8.35;;;7.18;;
2658;SDS011;1339;53.304;10.406;2023-03-08T02:02:09;10.35;;;7.07;;
2658;SDS011;1339;53.304;10.406;2023-03-08T02:04:36;10.38;;;6.75;;
2658;SDS011;1339;53.304;10.406;2023-03-08T02:07:05;7.90;;;7.13;;
2658;SDS011;1339;53.304;10.406;2023-03-08T02:09:32;9.00;;;7.03;;
2658;SDS011;1339;53.304;10.406;2023-03-08T02:12:00;9.23;;;7.85;;
2658;SDS011;1339;53.304;10.406;2023-03-08T02:14:28;8.38;;;7.40;;
2658;SDS011;1339;53.304;10.406;2023-03-08T02:16:55;9.07;;;7.53;;
2658;SDS011;1339;53.304;10.406;2023-03-08T02:19:24;10.20;;;7.38;;
2658;SDS011;1339;53.304;10.406;2023-03-08T02:21:52;8.45;;;7.68;;
2658;SDS011;1339;53.304;10.406;2023-03-08T02:24:21;8.68;;;7.07;;
2658;SDS011;1339;53.304;10.406;2023-03-08T02:26:48;9.30;;;8.50;;
2658;SDS011;1339;53.304;10.406;2023-03-08T02:29:16;8.35;;;7.45;;
2658;SDS011;1339;53.304;10.406;2023-03-08T02:31:43;8.68;;;7.00;;
2658;SDS011;1339;53.304;10.406;2023-03-08T02:34:10;10.48;;;8.52;;
2658;SDS011;1339;53.304;10.406;2023-03-08T02:36:37;9.50;;;8.60;;
2658;SDS011;1339;53.304;10.406;2023-03-08T02:39:04;11.13;;;8.90;;
2658;SDS011;1339;53.304;10.406;2023-03-08T02:41:32;16.48;;;10.10;;
2658;SDS011;1339;53.304;10.406;2023-03-08T02:43:59;10.63;;;7.97;;
2658;SDS011;1339;53.304;10.406;2023-03-08T02:46:27;15.23;;;9.40;;
2658;SDS011;1339;53.304;10.406;2023-03-08T02:48:54;13.35;;;9.15;;
2658;SDS011;1339;53.304;10.406;2023-03-08T02:51:21;10.82;;;8.48;;
2658;SDS011;1339;53.304;10.406;2023-03-08T02:53:48;14.10;;;9.27;;
2658;SDS011;1339;53.304;10.406;2023-03-08T02:56:15;9.23;;;7.78;;
2658;SDS011;1339;53.304;10.406;2023-03-08T02:58:43;10.02;;;6.97;;
2658;SDS011;1339;53.304;10.406;2023-03-08T03:01:10;11.18;;;8.57;;
2658;SDS011;1339;53.304;10.406;2023-03-08T03:03:37;12.85;;;8.27;;
2658;SDS011;1339;53.304;10.406;2023-03-08T03:06:11;8.80;;;7.68;;
2658;SDS011;1339;53.304;10.406;2023-03-08T03:08:38;8.77;;;6.78;;
2658;SDS011;1339;53.304;10.406;2023-03-08T03:11:09;9.18;;;8.27;;
2658;SDS011;1339;53.304;10.406;2023-03-08T03:13:36;6.78;;;5.97;;
2658;SDS011;1339;53.304;10.406;2023-03-08T03:16:05;9.77;;;7.75;;
2658;SDS011;1339;53.304;10.406;2023-03-08T03:18:32;8.52;;;7.63;;
2658;SDS011;1339;53.304;10.406;2023-03-08T03:21:01;12.05;;;8.35;;
2658;SDS011;1339;53.304;10.406;2023-03-08T03:23:28;8.32;;;6.82;;
2658;SDS011;1339;53.304;10.406;2023-03-08T03:25:55;9.50;;;6.70;;
2658;SDS011;1339;53.304;10.406;2023-03-08T03:28:22;11.98;;;9.40;;
2658;SDS011;1339;53.304;10.406;2023-03-08T03:30:49;10.43;;;8.10;;
2658;SDS011;1339;53.304;10.406;2023-03-08T03:33:17;9.95;;;8.75;;
2658;SDS011;1339;53.304;10.406;2023-03-08T03:35:44;9.27;;;7.10;;
2658;SDS011;1339;53.304;10.406;2023-03-08T03:38:11;10.63;;;7.97;;
2658;SDS011;1339;53.304;10.406;2023-03-08T03:40:38;10.40;;;7.20;;
2658;SDS011;1339;53.304;10.406;2023-03-08T03:43:05;9.25;;;7.55;;
2658;SDS011;1339;53.304;10.406;2023-03-08T03:45:32;10.95;;;7.70;;
2658;SDS011;1339;53.304;10.406;2023-03-08T03:47:58;8.70;;;7.53;;
2658;SDS011;1339;53.304;10.406;2023-03-08T03:50:27;7.63;;;6.72;;
2658;SDS011;1339;53.304;10.406;2023-03-08T03:52:54;7.97;;;6.43;;
2658;SDS011;1339;53.304;10.406;2023-03-08T03:55:20;10.88;;;7.43;;
2658;SDS011;1339;53.304;10.406;2023-03-08T03:57:47;8.00;;;6.68;;
2658;SDS011;1339;53.304;10.406;2023-03-08T04:00:15;8.15;;;7.20;;
2658;SDS011;1339;53.304;10.406;2023-03-08T04:02:42;8.40;;;5.80;;
2658;SDS011;1339;53.304;10.406;2023-03-08T04:05:09;9.57;;;7.63;;
2658;SDS011;1339;53.304;10.406;2023-03-08T04:07:37;9.75;;;6.97;;
2658;SDS011;1339;53.304;10.406;2023-03-08T04:10:04;12.02;;;7.38;;
2658;SDS011;1339;53.304;10.406;2023-03-08T04:12:31;9.00;;;7.15;;
2658;SDS011;1339;53.304;10.406;2023-03-08T04:14:58;13.75;;;5.97;;
2658;SDS011;1339;53.304;10.406;2023-03-08T04:17:25;10.20;;;7.47;;
2658;SDS011;1339;53.304;10.406;2023-03-08T04:19:52;7.30;;;6.00;;
2658;SDS011;1339;53.304;10.406;2023-03-08T04:22:19;7.20;;;6.40;;
2658;SDS011;1339;53.304;10.406;2023-03-08T04:24:48;8.15;;;7.05;;
2658;SDS011;1339;53.304;10.406;2023-03-08T04:27:14;8.55;;;6.70;;
2658;SDS011;1339;53.304;10.406;2023-03-08T04:29:41;8.38;;;7.10;;
2658;SDS011;1339;53.304;10.406;2023-03-08T04:32:08;8.63;;;5.95;;
2658;SDS011;1339;53.304;10.406;2023-03-08T04:34:35;8.82;;;6.05;;
2658;SDS011;1339;53.304;10.406;2023-03-08T04:37:02;8.85;;;6.60;;
2658;SDS011;1339;53.304;10.406;2023-03-08T04:39:29;6.90;;;6.10;;
2658;SDS011;1339;53.304;10.406;2023-03-08T04:41:57;7.05;;;6.40;;
2658;SDS011;1339;53.304;10.406;2023-03-08T04:44:24;7.32;;;5.88;;
2658;SDS011;1339;53.304;10.406;2023-03-08T04:46:51;7.22;;;5.82;;
2658;SDS011;1339;53.304;10.406;2023-03-08T04:49:18;7.78;;;6.97;;
2658;SDS011;1339;53.304;10.406;2023-03-08T04:51:46;7.32;;;6.70;;
2658;SDS011;1339;53.304;10.406;2023-03-08T04:54:12;6.43;;;5.82;;
2658;SDS011;1339;53.304;10.406;2023-03-08T04:56:39;6.93;;;6.25;;
2658;SDS011;1339;53.304;10.406;2023-03-08T04:59:08;8.15;;;7.25;;
2658;SDS011;1339;53.304;10.406;2023-03-08T05:01:35;8.20;;;6.63;;
2658;SDS011;1339;53.304;10.406;2023-03-08T05:04:01;10.45;;;7.28;;
2658;SDS011;1339;53.304;10.406;2023-03-08T05:06:28;10.23;;;8.43;;
2658;SDS011;1339;53.304;10.406;2023-03-08T05:08:55;9.82;;;7.90;;
2658;SDS011;1339;53.304;10.406;2023-03-08T05:11:23;9.35;;;7.70;;
2658;SDS011;1339;53.304;10.406;2023-03-08T05:13:51;6.70;;;6.10;;
2658;SDS011;1339;53.304;10.406;2023-03-08T05:16:20;7.32;;;6.63;;
2658;SDS011;1339;53.304;10.406;2023-03-08T05:18:47;7.15;;;6.45;;
2658;SDS011;1339;53.304;10.406;2023-03-08T05:21:14;7.65;;;6.65;;
2658;SDS011;1339;53.304;10.406;2023-03-08T05:23:41;7.63;;;6.53;;
2658;SDS011;1339;53.304;10.406;2023-03-08T05:26:09;7.25;;;5.90;;
2658;SDS011;1339;53.304;10.406;2023-03-08T05:28:37;6.20;;;5.60;;
2658;SDS011;1339;53.304;10.406;2023-03-08T05:31:06;6.57;;;5.80;;
2658;SDS011;1339;53.304;10.406;2023-03-08T05:33:34;6.13;;;5.57;;
2658;SDS011;1339;53.304;10.406;2023-03-08T05:36:02;7.72;;;6.25;;
2658;SDS011;1339;53.304;10.406;2023-03-08T05:38:29;5.90;;;5.20;;
2658;SDS011;1339;53.304;10.406;2023-03-08T05:40:58;6.00;;;4.93;;
2658;SDS011;1339;53.304;10.406;2023-03-08T05:43:25;6.45;;;5.35;;
2658;SDS011;1339;53.304;10.406;2023-03-08T05:45:53;8.45;;;6.13;;
2658;SDS011;1339;53.304;10.406;2023-03-08T05:48:20;8.95;;;6.15;;
2658;SDS011;1339;53.304;10.406;2023-03-08T05:50:48;7.07;;;5.03;;
2658;SDS011;1339;53.304;10.406;2023-03-08T05:53:15;12.07;;;5.70;;
2658;SDS011;1339;53.304;10.406;2023-03-08T05:55:42;5.82;;;5.32;;
2658;SDS011;1339;53.304;10.406;2023-03-08T05:58:09;6.90;;;5.18;;
2658;SDS011;1339;53.304;10.406;2023-03-08T06:00:36;8.02;;;5.95;;
2658;SDS011;1339;53.304;10.406;2023-03-08T06:03:03;7.95;;;6.72;;
2658;SDS011;1339;53.304;10.406;2023-03-08T06:05:30;9.25;;;6.25;;
2658;SDS011;1339;53.304;10.406;2023-03-08T06:07:59;6.88;;;6.28;;
2658;SDS011;1339;53.304;10.406;2023-03-08T06:10:26;5.90;;;5.30;;
2658;SDS011;1339;53.304;10.406;2023-03-08T06:12:53;6.43;;;5.57;;
2658;SDS011;1339;53.304;10.406;2023-03-08T06:15:20;8.55;;;5.28;;
2658;SDS011;1339;53.304;10.406;2023-03-08T06:17:46;7.30;;;5.60;;
2658;SDS011;1339;53.304;10.406;2023-03-08T06:20:13;7.18;;;6.00;;
2658;SDS011;1339;53.304;10.406;2023-03-08T06:22:40;6.97;;;6.38;;
2658;SDS011;1339;53.304;10.406;2023-03-08T06:25:09;8.05;;;5.82;;
2658;SDS011;1339;53.304;10.406;2023-03-08T06:27:36;7.25;;;6.55;;
2658;SDS011;1339;53.304;10.406;2023-03-08T06:30:03;5.85;;;4.50;;
2658;SDS011;1339;53.304;10.406;2023-03-08T06:32:30;6.18;;;5.38;;
2658;SDS011;1339;53.304;10.406;2023-03-08T06:34:57;6.10;;;5.00;;
2658;SDS011;1339;53.304;10.406;2023-03-08T06:37:24;7.57;;;5.30;;
2658;SDS011;1339;53.304;10.406;2023-03-08T06:39:51;7.68;;;4.70;;
2658;SDS011;1339;53.304;10.406;2023-03-08T06:42:19;6.28;;;4.70;;
2658;SDS011;1339;53.304;10.406;2023-03-08T06:44:46;7.57;;;6.03;;
2658;SDS011;1339;53.304;10.406;2023-03-08T06:47:13;6.97;;;5.78;;
2658;SDS011;1339;53.304;10.406;2023-03-08T06:49:40;7.25;;;5.50;;
2658;SDS011;1339;53.304;10.406;2023-03-08T06:52:07;7.93;;;5.22;;
2658;SDS011;1339;53.304;10.406;2023-03-08T06:54:34;5.75;;;5.25;;
2658;SDS011;1339;53.304;10.406;2023-03-08T06:57:00;6.15;;;5.55;;
2658;SDS011;1339;53.304;10.406;2023-03-08T06:59:29;7.75;;;5.43;;
2658;SDS011;1339;53.304;10.406;2023-03-08T07:01:56;9.48;;;7.38;;
2658;SDS011;1339;53.304;10.406;2023-03-08T07:04:23;5.93;;;5.43;;
2658;SDS011;1339;53.304;10.406;2023-03-08T07:06:50;5.78;;;5.10;;
2658;SDS011;1339;53.304;10.406;2023-03-08T07:09:16;6.03;;;5.28;;
2658;SDS011;1339;53.304;10.406;2023-03-08T07:11:43;6.78;;;5.00;;
2658;SDS011;1339;53.304;10.406;2023-03-08T07:14:10;5.47;;;4.95;;
2658;SDS011;1339;53.304;10.406;2023-03-08T07:16:39;5.72;;;4.90;;
2658;SDS011;1339;53.304;10.406;2023-03-08T07:19:06;4.50;;;4.10;;
2658;SDS011;1339;53.304;10.406;2023-03-08T07:21:32;4.85;;;4.35;;
2658;SDS011;1339;53.304;10.406;2023-03-08T07:24:01;6.15;;;5.03;;
2658;SDS011;1339;53.304;10.406;2023-03-08T07:26:28;5.43;;;4.10;;
2658;SDS011;1339;53.304;10.406;2023-03-08T07:28:54;6.57;;;5.75;;
2658;SDS011;1339;53.304;10.406;2023-03-08T07:31:21;7.50;;;4.82;;
2658;SDS011;1339;53.304;10.406;2023-03-08T07:33:51;5.72;;;5.18;;
2658;SDS011;1339;53.304;10.406;2023-03-08T07:36:18;4.32;;;3.88;;
2658;SDS011;1339;53.304;10.406;2023-03-08T07:38:45;7.22;;;4.50;;
2658;SDS011;1339;53.304;10.406;2023-03-08T07:41:13;5.38;;;4.50;;
2658;SDS011;1339;53.304;10.406;2023-03-08T07:43:40;5.30;;;4.80;;
2658;SDS011;1339;53.304;10.406;2023-03-08T07:46:07;6.70;;;4.43;;
2658;SDS011;1339;53.304;10.406;2023-03-08T07:48:33;5.80;;;4.85;;
2658;SDS011;1339;53.304;10.406;2023-03-08T07:51:02;5.95;;;5.43;;
2658;SDS011;1339;53.304;10.406;2023-03-08T07:53:31;8.18;;;5.15;;
2658;SDS011;1339;53.304;10.406;2023-03-08T07:55:58;7.32;;;5.28;;
2658;SDS011;1339;53.304;10.406;2023-03-08T07:58:25;6.35;;;5.13;;
2658;SDS011;1339;53.304;10.406;2023-03-08T08:00:52;5.93;;;5.28;;
2658;SDS011;1339;53.304;10.406;2023-03-08T08:03:19;9.07;;;4.35;;
2658;SDS011;1339;53.304;10.406;2023-03-08T08:05:46;7.22;;;4.60;;
2658;SDS011;1339;53.304;10.406;2023-03-08T08:08:14;5.40;;;4.90;;
2658;SDS011;1339;53.304;10.406;2023-03-08T08:10:41;6.05;;;4.85;;
2658;SDS011;1339;53.304;10.406;2023-03-08T08:13:08;6.38;;;5.00;;
2658;SDS011;1339;53.304;10.406;2023-03-08T08:15:35;6.18;;;4.60;;
2658;SDS011;1339;53.304;10.406;2023-03-08T08:18:02;6.88;;;5.13;;
2658;SDS011;1339;53.304;10.406;2023-03-08T08:20:29;6.50;;;5.15;;
2658;SDS011;1339;53.304;10.406;2023-03-08T08:22:56;6.97;;;5.60;;
2658;SDS011;1339;53.304;10.406;2023-03-08T08:25:24;5.68;;;4.15;;
2658;SDS011;1339;53.304;10.406;2023-03-08T08:27:51;5.88;;;4.75;;
2658;SDS011;1339;53.304;10.406;2023-03-08T08:30:18;5.32;;;4.82;;
2658;SDS011;1339;53.304;10.406;2023-03-08T08:32:45;7.20;;;4.30;;
2658;SDS011;1339;53.304;10.406;2023-03-08T08:35:12;5.60;;;4.22;;
2658;SDS011;1339;53.304;10.406;2023-03-08T08:37:39;12.13;;;3.85;;
2658;SDS011;1339;53.304;10.406;2023-03-08T08:40:07;6.32;;;4.75;;
2658;SDS011;1339;53.304;10.406;2023-03-08T08:42:37;5.55;;;3.80;;
2658;SDS011;1339;53.304;10.406;2023-03-08T08:45:04;6.90;;;4.90;;
2658;SDS011;1339;53.304;10.406;2023-03-08T08:47:31;5.95;;;4.57;;
2658;SDS011;1339;53.304;10.406;2023-03-08T08:49:59;6.60;;;4.05;;
2658;SDS011;1339;53.304;10.406;2023-03-08T08:52:25;6.80;;;4.05;;
2658;SDS011;1339;53.304;10.406;2023-03-08T08:54:52;4.80;;;4.30;;
2658;SDS011;1339;53.304;10.406;2023-03-08T08:57:20;7.60;;;4.78;;
2658;SDS011;1339;53.304;10.406;2023-03-08T08:59:48;6.28;;;4.68;;
2658;SDS011;1339;53.304;10.406;2023-03-08T09:02:15;6.80;;;4.60;;
2658;SDS011;1339;53.304;10.406;2023-03-08T09:04:42;9.93;;;4.60;;
2658;SDS011;1339;53.304;10.406;2023-03-08T09:07:09;6.13;;;5.22;;
2658;SDS011;1339;53.304;10.406;2023-03-08T09:09:36;11.60;;;5.80;;
2658;SDS011;1339;53.304;10.406;2023-03-08T09:12:03;8.48;;;5.15;;
2658;SDS011;1339;53.304;10.406;2023-03-08T09:14:30;4.70;;;4.20;;
2658;SDS011;1339;53.304;10.406;2023-03-08T09:16:59;8.13;;;5.10;;
2658;SDS011;1339;53.304;10.406;2023-03-08T09:19:25;5.05;;;4.55;;
2658;SDS011;1339;53.304;10.406;2023-03-08T09:21:52;6.22;;;5.03;;
2658;SDS011;1339;53.304;10.406;2023-03-08T09:24:19;5.15;;;4.65;;
2658;SDS011;1339;53.304;10.406;2023-03-08T09:26:46;5.95;;;3.65;;
2658;SDS011;1339;53.304;10.406;2023-03-08T09:29:13;5.93;;;4.68;;
2658;SDS011;1339;53.304;10.406;2023-03-08T09:31:40;5.82;;;4.78;;
2658;SDS011;1339;53.304;10.406;2023-03-08T09:34:10;5.18;;;4.68;;
2658;SDS011;1339;53.304;10.406;2023-03-08T09:36:39;4.90;;;3.95;;
2658;SDS011;1339;53.304;10.406;2023-03-08T09:39:07;7.88;;;5.10;;
2658;SDS011;1339;53.304;10.406;2023-03-08T09:41:43;4.45;;;3.67;;
2658;SDS011;1339;53.304;10.406;2023-03-08T09:44:13;5.78;;;4.85;;
2658;SDS011;1339;53.304;10.406;2023-03-08T09:46:43;5.20;;;4.25;;
2658;SDS011;1339;53.304;10.406;2023-03-08T09:49:13;9.02;;;5.10;;
2658;SDS011;1339;53.304;10.406;2023-03-08T09:51:43;7.78;;;4.47;;
2658;SDS011;1339;53.304;10.406;2023-03-08T09:54:13;5.70;;;4.80;;
2658;SDS011;1339;53.304;10.406;2023-03-08T09:56:41;5.95;;;5.05;;
2658;SDS011;1339;53.304;10.406;2023-03-08T09:59:11;5.20;;;4.75;;
2658;SDS011;1339;53.304;10.406;2023-03-08T10:01:41;5.68;;;4.22;;
2658;SDS011;1339;53.304;10.406;2023-03-08T10:04:17;7.43;;;5.45;;
2658;SDS011;1339;53.304;10.406;2023-03-08T10:06:49;5.90;;;4.30;;
2658;SDS011;1339;53.304;10.406;2023-03-08T10:09:21;5.78;;;5.18;;
2658;SDS011;1339;53.304;10.406;2023-03-08T10:11:52;5.82;;;5.32;;
2658;SDS011;1339;53.304;10.406;2023-03-08T10:14:20;5.55;;;5.05;;
2658;SDS011;1339;53.304;10.406;2023-03-08T10:16:50;5.80;;;5.20;;
2658;SDS011;1339;53.304;10.406;2023-03-08T10:19:21;4.90;;;4.50;;
2658;SDS011;1339;53.304;10.406;2023-03-08T10:21:49;8.63;;;5.00;;
2658;SDS011;1339;53.304;10.406;2023-03-08T10:24:18;5.05;;;4.15;;
2658;SDS011;1339;53.304;10.406;2023-03-08T10:26:50;5.15;;;3.45;;
2658;SDS011;1339;53.304;10.406;2023-03-08T10:29:17;4.47;;;3.88;;
2658;SDS011;1339;53.304;10.406;2023-03-08T10:31:45;6.05;;;4.20;;
2658;SDS011;1339;53.304;10.406;2023-03-08T10:34:13;5.53;;;4.32;;
2658;SDS011;1339;53.304;10.406;2023-03-08T10:36:50;4.05;;;3.65;;
2658;SDS011;1339;53.304;10.406;2023-03-08T10:39:17;4.85;;;3.95;;
2658;SDS011;1339;53.304;10.406;2023-03-08T10:41:47;7.07;;;4.13;;
2658;SDS011;1339;53.304;10.406;2023-03-08T10:44:27;4.10;;;3.70;;
2658;SDS011;1339;53.304;10.406;2023-03-08T10:46:55;4.03;;;3.63;;
2658;SDS011;1339;53.304;10.406;2023-03-08T10:49:22;3.88;;;3.47;;
2658;SDS011;1339;53.304;10.406;2023-03-08T10:51:52;4.15;;;3.60;;
2658;SDS011;1339;53.304;10.406;2023-03-08T10:54:19;3.95;;;3.65;;
2658;SDS011;1339;53.304;10.406;2023-03-08T10:56:50;3.70;;;3.40;;
2658;SDS011;1339;53.304;10.406;2023-03-08T10:59:18;4.32;;;3.05;;
2658;SDS011;1339;53.304;10.406;2023-03-08T11:01:52;4.68;;;2.65;;
2658;SDS011;1339;53.304;10.406;2023-03-08T11:04:19;4.55;;;3.67;;
2658;SDS011;1339;53.304;10.406;2023-03-08T11:06:47;3.25;;;3.00;;
2658;SDS011;1339;53.304;10.406;2023-03-08T11:09:19;3.40;;;3.10;;
2658;SDS011;1339;53.304;10.406;2023-03-08T11:11:46;3.30;;;3.00;;
2658;SDS011;1339;53.304;10.406;2023-03-08T11:14:13;3.63;;;3.35;;
2658;SDS011;1339;53.304;10.406;2023-03-08T11:19:25;3.50;;;3.20;;
2658;SDS011;1339;53.304;10.406;2023-03-08T11:21:56;3.63;;;3.33;;
2658;SDS011;1339;53.304;10.406;2023-03-08T11:24:29;3.45;;;3.00;;
2658;SDS011;1339;53.304;10.406;2023-03-08T11:27:03;3.47;;;2.95;;
2658;SDS011;1339;53.304;10.406;2023-03-08T11:29:34;4.07;;;2.95;;
2658;SDS011;1339;53.304;10.406;2023-03-08T11:32:06;4.15;;;3.60;;
2658;SDS011;1339;53.304;10.406;2023-03-08T11:34:39;3.83;;;2.85;;
2658;SDS011;1339;53.304;10.406;2023-03-08T11:37:10;5.80;;;4.05;;
2658;SDS011;1339;53.304;10.406;2023-03-08T11:39:41;4.78;;;2.92;;
2658;SDS011;1339;53.304;10.406;2023-03-08T11:42:12;3.95;;;3.30;;
2658;SDS011;1339;53.304;10.406;2023-03-08T11:44:44;4.47;;;4.07;;
2658;SDS011;1339;53.304;10.406;2023-03-08T11:47:34;3.75;;;3.17;;
2658;SDS011;1339;53.304;10.406;2023-03-08T11:50:05;3.13;;;2.92;;
2658;SDS011;1339;53.304;10.406;2023-03-08T11:52:36;4.00;;;3.28;;
2658;SDS011;1339;53.304;10.406;2023-03-08T11:55:25;3.50;;;3.20;;
2658;SDS011;1339;53.304;10.406;2023-03-08T11:57:55;5.00;;;2.90;;
2658;SDS011;1339;53.304;10.406;2023-03-08T12:00:26;5.30;;;3.30;;
2658;SDS011;1339;53.304;10.406;2023-03-08T12:02:54;3.38;;;2.83;;
2658;SDS011;1339;53.304;10.406;2023-03-08T12:05:24;4.85;;;3.15;;
2658;SDS011;1339;53.304;10.406;2023-03-08T12:07:52;4.68;;;3.42;;
2658;SDS011;1339;53.304;10.406;2023-03-08T12:10:23;5.38;;;3.00;;
2658;SDS011;1339;53.304;10.406;2023-03-08T12:12:52;4.72;;;3.35;;
2658;SDS011;1339;53.304;10.406;2023-03-08T12:15:22;5.70;;;3.20;;
2658;SDS011;1339;53.304;10.406;2023-03-08T12:17:51;2.90;;;2.70;;
2658;SDS011;1339;53.304;10.406;2023-03-08T12:20:19;4.82;;;3.63;;
2658;SDS011;1339;53.304;10.406;2023-03-08T12:22:49;3.72;;;3.42;;
2658;SDS011;1339;53.304;10.406;2023-03-08T12:25:21;8.05;;;3.28;;
2658;SDS011;1339;53.304;10.406;2023-03-08T12:27:52;3.15;;;2.95;;
2658;SDS011;1339;53.304;10.406;2023-03-08T12:30:23;3.45;;;2.88;;
2658;SDS011;1339;53.304;10.406;2023-03-08T12:32:51;4.22;;;3.55;;
2658;SDS011;1339;53.304;10.406;2023-03-08T12:35:24;4.75;;;2.80;;
2658;SDS011;1339;53.304;10.406;2023-03-08T12:37:53;4.35;;;3.90;;
2658;SDS011;1339;53.304;10.406;2023-03-08T12:40:26;2.75;;;2.55;;
2658;SDS011;1339;53.304;10.406;2023-03-08T12:43:03;4.03;;;2.75;;
2658;SDS011;1339;53.304;10.406;2023-03-08T12:45:30;3.15;;;2.85;;
2658;SDS011;1339;53.304;10.406;2023-03-08T12:47:59;3.13;;;2.45;;
2658;SDS011;1339;53.304;10.406;2023-03-08T12:50:27;2.92;;;2.72;;
2658;SDS011;1339;53.304;10.406;2023-03-08T12:52:54;4.03;;;3.10;;
2658;SDS011;1339;53.304;10.406;2023-03-08T12:55:23;5.50;;;3.17;;
2658;SDS011;1339;53.304;10.406;2023-03-08T12:57:55;3.55;;;2.90;;
2658;SDS011;1339;53.304;10.406;2023-03-08T13:00:26;4.90;;;3.45;;
2658;SDS011;1339;53.304;10.406;2023-03-08T13:02:57;7.50;;;2.25;;
2658;SDS011;1339;53.304;10.406;2023-03-08T13:05:28;3.83;;;3.28;;
2658;SDS011;1339;53.304;10.406;2023-03-08T13:08:00;3.63;;;3.33;;
2658;SDS011;1339;53.304;10.406;2023-03-08T13:10:29;3.25;;;2.83;;
2658;SDS011;1339;53.304;10.406;2023-03-08T13:13:00;3.50;;;3.20;;
2658;SDS011;1339;53.304;10.406;2023-03-08T13:15:30;3.35;;;3.05;;
2658;SDS011;1339;53.304;10.406;2023-03-08T13:17:58;4.85;;;3.05;;
2658;SDS011;1339;53.304;10.406;2023-03-08T13:20:28;3.53;;;3.22;;
2658;SDS011;1339;53.304;10.406;2023-03-08T13:23:01;2.90;;;2.60;;
2658;SDS011;1339;53.304;10.406;2023-03-08T13:25:38;3.65;;;3.35;;
2658;SDS011;1339;53.304;10.406;2023-03-08T13:28:08;3.30;;;3.10;;
2658;SDS011;1339;53.304;10.406;2023-03-08T13:30:37;3.20;;;2.95;;
2658;SDS011;1339;53.304;10.406;2023-03-08T13:33:12;3.72;;;3.10;;
2658;SDS011;1339;53.304;10.406;2023-03-08T13:35:39;4.65;;;2.90;;
2658;SDS011;1339;53.304;10.406;2023-03-08T13:38:21;2.83;;;2.60;;
2658;SDS011;1339;53.304;10.406;2023-03-08T13:40:51;5.68;;;4.05;;
2658;SDS011;1339;53.304;10.406;2023-03-08T13:43:20;3.45;;;3.15;;
2658;SDS011;1339;53.304;10.406;2023-03-08T13:45:49;5.38;;;4.18;;
2658;SDS011;1339;53.304;10.406;2023-03-08T13:48:17;3.53;;;3.20;;
2658;SDS011;1339;53.304;10.406;2023-03-08T13:50:46;3.85;;;3.10;;
2658;SDS011;1339;53.304;10.406;2023-03-08T13:53:16;3.47;;;3.28;;
2658;SDS011;1339;53.304;10.406;2023-03-08T13:55:43;3.03;;;2.83;;
2658;SDS011;1339;53.304;10.406;2023-03-08T13:58:13;5.80;;;3.40;;
2658;SDS011;1339;53.304;10.406;2023-03-08T14:00:44;2.80;;;2.60;;
2658;SDS011;1339;53.304;10.406;2023-03-08T14:03:18;3.65;;;2.55;;
2658;SDS011;1339;53.304;10.406;2023-03-08T14:05:45;3.40;;;3.10;;
2658;SDS011;1339;53.304;10.406;2023-03-08T14:08:17;9.05;;;4.35;;
2658;SDS011;1339;53.304;10.406;2023-03-08T14:10:46;2.78;;;2.58;;
2658;SDS011;1339;53.304;10.406;2023-03-08T14:13:14;3.67;;;3.30;;
2658;SDS011;1339;53.304;10.406;2023-03-08T14:15:46;4.45;;;4.05;;
2658;SDS011;1339;53.304;10.406;2023-03-08T14:18:18;6.72;;;3.35;;
2658;SDS011;1339;53.304;10.406;2023-03-08T14:20:57;4.82;;;3.97;;
2658;SDS011;1339;53.304;10.406;2023-03-08T14:23:24;3.65;;;3.35;;
2658;SDS011;1339;53.304;10.406;2023-03-08T14:25:54;3.72;;;3.42;;
2658;SDS011;1339;53.304;10.406;2023-03-08T14:28:34;3.35;;;2.97;;
2658;SDS011;1339;53.304;10.406;2023-03-08T14:31:02;4.82;;;4.00;;
2658;SDS011;1339;53.304;10.406;2023-03-08T14:33:30;4.70;;;4.30;;
2658;SDS011;1339;53.304;10.406;2023-03-08T14:35:57;4.75;;;4.35;;
2658;SDS011;1339;53.304;10.406;2023-03-08T14:38:26;3.78;;;3.33;;
2658;SDS011;1339;53.304;10.406;2023-03-08T14:40:54;2.20;;;2.10;;
2658;SDS011;1339;53.304;10.406;2023-03-08T14:43:21;3.20;;;2.80;;
2658;SDS011;1339;53.304;10.406;2023-03-08T14:45:50;18.40;;;3.83;;
2658;SDS011;1339;53.304;10.406;2023-03-08T14:48:22;3.08;;;2.50;;
2658;SDS011;1339;53.304;10.406;2023-03-08T14:50:51;3.90;;;2.25;;
2658;SDS011;1339;53.304;10.406;2023-03-08T14:53:23;2.83;;;2.42;;
2658;SDS011;1339;53.304;10.406;2023-03-08T14:55:50;4.22;;;3.25;;
2658;SDS011;1339;53.304;10.406;2023-03-08T14:58:25;2.97;;;2.35;;
2658;SDS011;1339;53.304;10.406;2023-03-08T15:00:53;3.55;;;2.55;;
2658;SDS011;1339;53.304;10.406;2023-03-08T15:03:21;8.50;;;2.38;;
2658;SDS011;1339;53.304;10.406;2023-03-08T15:05:48;2.00;;;1.80;;
2658;SDS011;1339;53.304;10.406;2023-03-08T15:08:16;2.35;;;2.15;;
2658;SDS011;1339;53.304;10.406;2023-03-08T15:10:43;2.65;;;1.85;;